Insider Trading activities of Texas Pacific Land Trust (TPL)

Insider trading activities (stock purchases, sales, and option exercises) reported by insiders of Texas Pacific Land Trust (TPL) since 2005 are illustrated in Table 1 and Table 2. Table 1 shows the monthly insider trading data of Texas Pacific Land Trust since year 2005. Table 2 shows the detailed insider transactions of Texas Pacific Land Trust since 2005. The reporting company's ticker symbol is TPL. The reporting company's CIK number is 97517.
The total value of stock buying since 2005 is $7,481,502.
The total value of stock sales since 2005 is $3,103,623.
The total value of stock option exercises since 2005 is $0.


Table 1. Monthly summaries of insider stock purchases, sales, and option exercises for Texas Pacific Land Trust (TPL).
Trading Period Insider Buying Insider Sales Option Exercises
year-month Shares Value Shares Value Shares Value
2019-12 143 $94,010 0 $0 0 $0
2019-11 1,168 $754,920 0 $0 0 $0
2019-10 693 $419,306 0 $0 0 $0
2019-09 558 $378,004 0 $0 0 $0
2019-08 1,222 $816,230 0 $0 0 $0
2019-07 1,193 $928,434 0 $0 0 $0
2019-06 1,125 $852,795 0 $0 0 $0
2019-05 862 $695,277 0 $0 0 $0
2019-04 2,273 $1,841,970 0 $0 0 $0
2019-03 427 $323,461 0 $0 0 $0
2018-12 300 $165,406 0 $0 0 $0
2018-11 0 $0 1,500 $876,725 0 $0
2018-10 100 $81,000 109 $95,266 0 $0
2018-09 0 $0 1,500 $1,277,500 0 $0
2018-08 0 $0 1,000 $854,132 0 $0
2017-03 200 $58,576 0 $0 0 $0
2015-02 200 $24,545 0 $0 0 $0
2014-12 17 $1,892 0 $0 0 $0
2014-11 33 $4,816 0 $0 0 $0
2011-12 100 $4,175 0 $0 0 $0
2008-10 800 $24,765 0 $0 0 $0
2005-10 100 $11,920 0 $0 0 $0

Table 2. Detailed insider stock purchases, sales, and option exercises of Texas Pacific Land Trust insiders (TPL)
  Trade Date   Insider Name Trade Type     Shares       Price ($)   Value ($)
2019-12-05 Horizon Kinetics Asset Management Llc (10% Owner) Buy 40 666.40 26,656
2019-12-04 Horizon Kinetics Asset Management Llc (10% Owner) Buy 33 666.64 21,999
2019-12-03 Horizon Kinetics Asset Management Llc (10% Owner) Buy 33 645.61 21,305
2019-12-02 Horizon Kinetics Asset Management Llc (10% Owner) Buy 37 650.00 24,050
2019-11-29 Horizon Kinetics Asset Management Llc (10% Owner) Buy 33 674.98 22,274
2019-11-27 Horizon Kinetics Asset Management Llc (10% Owner) Buy 33 675.99 22,307
2019-11-26 Horizon Kinetics Asset Management Llc (10% Owner) Buy 37 667.20 24,686
2019-11-25 Horizon Kinetics Asset Management Llc (10% Owner) Buy 33 676.00 22,308
2019-11-22 Horizon Kinetics Asset Management Llc (10% Owner) Buy 26 670.00 17,420
2019-11-21 Horizon Kinetics Asset Management Llc (10% Owner) Buy 26 679.21 17,659
2019-11-20 Horizon Kinetics Asset Management Llc (10% Owner) Buy 46 690.18 31,748
2019-11-19 Horizon Kinetics Asset Management Llc (10% Owner) Buy 25 682.64 17,066
2019-11-18 Horizon Kinetics Asset Management Llc (10% Owner) Buy 25 665.05 16,626
2019-11-15 Horizon Kinetics Asset Management Llc (10% Owner) Buy 109 665.00 72,485
2019-11-14 Horizon Kinetics Asset Management Llc (10% Owner) Buy 108 651.01 70,309
2019-11-13 Horizon Kinetics Asset Management Llc (10% Owner) Buy 23 664.37 15,280
2019-11-12 Horizon Kinetics Asset Management Llc (10% Owner) Buy 33 646.75 21,342
2019-11-11 Horizon Kinetics Asset Management Llc (10% Owner) Buy 51 647.54 33,024
2019-11-08 Horizon Kinetics Asset Management Llc (10% Owner) Buy 28 645.00 18,060
2019-11-07 Horizon Kinetics Asset Management Llc (10% Owner) Buy 9 644.49 5,800
2019-11-06 Horizon Kinetics Asset Management Llc (10% Owner) Buy 9 654.49 5,890
2019-11-05 Horizon Kinetics Asset Management Llc (10% Owner) Buy 9 656.48 5,908
2019-11-04 Horizon Kinetics Asset Management Llc (10% Owner) Buy 9 647.83 5,830
2019-11-01 Horizon Kinetics Asset Management Llc (10% Owner) Buy 496 622.78 308,898
2019-10-31 Horizon Kinetics Asset Management Llc (10% Owner) Buy 9 580.21 5,221
2019-10-30 Horizon Kinetics Asset Management Llc (10% Owner) Buy 14 594.46 8,322
2019-10-29 Horizon Kinetics Asset Management Llc (10% Owner) Buy 9 603.62 5,432
2019-10-28 Horizon Kinetics Asset Management Llc (10% Owner) Buy 9 607.00 5,463
2019-10-25 Horizon Kinetics Asset Management Llc (10% Owner) Buy 9 607.73 5,469
2019-10-24 Horizon Kinetics Asset Management Llc (10% Owner) Buy 9 618.70 5,568
2019-10-23 Horizon Kinetics Asset Management Llc (10% Owner) Buy 9 613.70 5,523
2019-10-22 Horizon Kinetics Asset Management Llc (10% Owner) Buy 9 607.72 5,469
2019-10-21 Horizon Kinetics Asset Management Llc (10% Owner) Buy 9 596.85 5,371
2019-10-18 Horizon Kinetics Asset Management Llc (10% Owner) Buy 9 600.03 5,400
2019-10-17 Horizon Kinetics Asset Management Llc (10% Owner) Buy 9 594.31 5,348
2019-10-16 Horizon Kinetics Asset Management Llc (10% Owner) Buy 9 618.50 5,566
2019-10-15 Horizon Kinetics Asset Management Llc (10% Owner) Buy 9 608.46 5,476
2019-10-14 Horizon Kinetics Asset Management Llc (10% Owner) Buy 9 609.45 5,485
2019-10-11 Horizon Kinetics Asset Management Llc (10% Owner) Buy 9 621.50 5,593
2019-10-10 Horizon Kinetics Asset Management Llc (10% Owner) Buy 7 609.46 4,266
2019-10-09 Horizon Kinetics Asset Management Llc (10% Owner) Buy 7 618.50 4,329
2019-10-08 Horizon Kinetics Asset Management Llc (10% Owner) Buy 7 603.10 4,221
2019-10-07 Horizon Kinetics Asset Management Llc (10% Owner) Buy 7 606.25 4,243
2019-10-04 Horizon Kinetics Asset Management Llc (10% Owner) Buy 5 600.03 3,000
2019-10-04 Tessler Allan R Buy 500 603.86 301,930
2019-10-03 Horizon Kinetics Asset Management Llc (10% Owner) Buy 5 620.87 3,104
2019-10-02 Horizon Kinetics Asset Management Llc (10% Owner) Buy 5 610.98 3,054
2019-10-01 Horizon Kinetics Asset Management Llc (10% Owner) Buy 10 645.35 6,453
2019-09-30 Horizon Kinetics Asset Management Llc (10% Owner) Buy 5 643.24 3,216
2019-09-27 Horizon Kinetics Asset Management Llc (10% Owner) Buy 5 639.70 3,198
2019-09-26 Horizon Kinetics Asset Management Llc (10% Owner) Buy 5 642.55 3,212
2019-09-25 Horizon Kinetics Asset Management Llc (10% Owner) Buy 5 646.31 3,231
2019-09-24 Horizon Kinetics Asset Management Llc (10% Owner) Buy 5 651.51 3,257
2019-09-17 Horizon Kinetics Asset Management Llc (10% Owner) Buy 43 698.31 30,027
2019-09-16 Horizon Kinetics Asset Management Llc (10% Owner) Buy 49 705.71 34,579
2019-09-13 Horizon Kinetics Asset Management Llc (10% Owner) Buy 49 673.78 33,015
2019-09-12 Horizon Kinetics Asset Management Llc (10% Owner) Buy 49 663.00 32,487
2019-09-11 Horizon Kinetics Asset Management Llc (10% Owner) Buy 49 655.86 32,137
2019-09-10 Horizon Kinetics Asset Management Llc (10% Owner) Buy 49 659.40 32,310
2019-09-09 Horizon Kinetics Asset Management Llc (10% Owner) Buy 49 686.90 33,658
2019-09-06 Horizon Kinetics Asset Management Llc (10% Owner) Buy 49 697.48 34,176
2019-09-05 Horizon Kinetics Asset Management Llc (10% Owner) Buy 49 706.50 34,618
2019-09-04 Horizon Kinetics Asset Management Llc (10% Owner) Buy 49 670.27 32,843
2019-09-03 Horizon Kinetics Asset Management Llc (10% Owner) Buy 49 653.89 32,040
2019-08-30 Horizon Kinetics Asset Management Llc (10% Owner) Buy 49 654.60 32,075
2019-08-29 Horizon Kinetics Asset Management Llc (10% Owner) Buy 54 656.10 35,429
2019-08-28 Horizon Kinetics Asset Management Llc (10% Owner) Buy 49 641.58 31,437
2019-08-27 Horizon Kinetics Asset Management Llc (10% Owner) Buy 49 637.50 31,237
2019-08-26 Horizon Kinetics Asset Management Llc (10% Owner) Buy 49 636.08 31,167
2019-08-23 Horizon Kinetics Asset Management Llc (10% Owner) Buy 49 668.39 32,751
2019-08-22 Horizon Kinetics Asset Management Llc (10% Owner) Buy 49 674.50 33,050
2019-08-21 Horizon Kinetics Asset Management Llc (10% Owner) Buy 49 669.37 32,799
2019-08-20 Horizon Kinetics Asset Management Llc (10% Owner) Buy 49 666.50 32,658
2019-08-19 Horizon Kinetics Asset Management Llc (10% Owner) Buy 49 679.36 33,288
2019-08-16 Horizon Kinetics Asset Management Llc (10% Owner) Buy 49 671.46 32,901
2019-08-15 Horizon Kinetics Asset Management Llc (10% Owner) Buy 49 649.73 31,836
2019-08-14 Horizon Kinetics Asset Management Llc (10% Owner) Buy 188 641.00 120,508
2019-08-13 Horizon Kinetics Asset Management Llc (10% Owner) Buy 49 688.78 33,750
2019-08-12 Horizon Kinetics Asset Management Llc (10% Owner) Buy 49 679.65 33,302
2019-08-09 Horizon Kinetics Asset Management Llc (10% Owner) Buy 49 673.70 33,011
2019-08-08 Horizon Kinetics Asset Management Llc (10% Owner) Buy 49 674.39 33,045
2019-08-07 Horizon Kinetics Asset Management Llc (10% Owner) Buy 49 659.12 32,296
2019-08-06 Horizon Kinetics Asset Management Llc (10% Owner) Buy 49 681.00 33,369
2019-08-05 Horizon Kinetics Asset Management Llc (10% Owner) Buy 49 689.76 33,798
2019-08-02 Horizon Kinetics Asset Management Llc (10% Owner) Buy 49 720.23 35,291
2019-08-01 Horizon Kinetics Asset Management Llc (10% Owner) Buy 49 759.85 37,232
2019-07-31 Horizon Kinetics Asset Management Llc (10% Owner) Buy 49 800.00 39,200
2019-07-30 Horizon Kinetics Asset Management Llc (10% Owner) Buy 49 755.49 37,019
2019-07-29 Horizon Kinetics Asset Management Llc (10% Owner) Buy 49 740.50 36,284
2019-07-26 Horizon Kinetics Asset Management Llc (10% Owner) Buy 49 749.50 36,725
2019-07-25 Horizon Kinetics Asset Management Llc (10% Owner) Buy 49 744.49 36,480
2019-07-24 Horizon Kinetics Asset Management Llc (10% Owner) Buy 49 753.12 36,902
2019-07-23 Horizon Kinetics Asset Management Llc (10% Owner) Buy 49 749.44 36,722
2019-07-22 Horizon Kinetics Asset Management Llc (10% Owner) Buy 49 768.84 37,673
2019-07-19 Horizon Kinetics Asset Management Llc (10% Owner) Buy 49 764.50 37,460
2019-07-18 Horizon Kinetics Asset Management Llc (10% Owner) Buy 49 759.50 37,215
2019-07-17 Horizon Kinetics Asset Management Llc (10% Owner) Buy 157 769.49 120,809
2019-07-16 Horizon Kinetics Asset Management Llc (10% Owner) Buy 49 779.61 38,200
2019-07-15 Horizon Kinetics Asset Management Llc (10% Owner) Buy 49 795.00 38,955
2019-07-12 Horizon Kinetics Asset Management Llc (10% Owner) Buy 49 798.15 39,109
2019-07-11 Horizon Kinetics Asset Management Llc (10% Owner) Buy 49 808.89 39,635
2019-07-10 Horizon Kinetics Asset Management Llc (10% Owner) Buy 50 797.58 39,879
2019-07-09 Horizon Kinetics Asset Management Llc (10% Owner) Buy 50 789.73 39,486
2019-07-08 Horizon Kinetics Asset Management Llc (10% Owner) Buy 50 810.20 40,510
2019-07-05 Horizon Kinetics Asset Management Llc (10% Owner) Buy 50 798.67 39,933
2019-07-03 Horizon Kinetics Asset Management Llc (10% Owner) Buy 50 793.74 39,687
2019-07-02 Horizon Kinetics Asset Management Llc (10% Owner) Buy 50 811.04 40,552
2019-07-01 Horizon Kinetics Asset Management Llc (10% Owner) Buy 50 799.99 39,999
2019-06-28 Horizon Kinetics Asset Management Llc (10% Owner) Buy 50 795.24 39,762
2019-06-27 Horizon Kinetics Asset Management Llc (10% Owner) Buy 50 785.98 39,299
2019-06-26 Horizon Kinetics Asset Management Llc (10% Owner) Buy 50 817.18 40,859
2019-06-25 Horizon Kinetics Asset Management Llc (10% Owner) Buy 50 787.20 39,360
2019-06-24 Horizon Kinetics Asset Management Llc (10% Owner) Buy 50 782.12 39,106
2019-06-21 Horizon Kinetics Asset Management Llc (10% Owner) Buy 50 791.07 39,553
2019-06-20 Horizon Kinetics Asset Management Llc (10% Owner) Buy 50 796.72 39,836
2019-06-19 Horizon Kinetics Asset Management Llc (10% Owner) Buy 50 755.88 37,794
2019-06-18 Horizon Kinetics Asset Management Llc (10% Owner) Buy 50 735.09 36,754
2019-06-17 Horizon Kinetics Asset Management Llc (10% Owner) Buy 50 718.96 35,948
2019-06-14 Horizon Kinetics Asset Management Llc (10% Owner) Buy 50 739.99 36,999
2019-06-13 Horizon Kinetics Asset Management Llc (10% Owner) Buy 50 726.13 36,306
2019-06-12 Horizon Kinetics Asset Management Llc (10% Owner) Buy 50 744.22 37,211
2019-06-11 Horizon Kinetics Asset Management Llc (10% Owner) Buy 50 771.11 38,555
2019-06-10 Horizon Kinetics Asset Management Llc (10% Owner) Buy 50 764.77 38,238
2019-06-07 Horizon Kinetics Asset Management Llc (10% Owner) Buy 50 749.91 37,495
2019-06-06 Horizon Kinetics Asset Management Llc (10% Owner) Buy 175 740.80 129,639
2019-06-05 Horizon Kinetics Asset Management Llc (10% Owner) Buy 50 730.07 36,503
2019-06-04 Horizon Kinetics Asset Management Llc (10% Owner) Buy 50 732.78 36,639
2019-06-03 Horizon Kinetics Asset Management Llc (10% Owner) Buy 50 738.78 36,939
2019-05-31 Horizon Kinetics Asset Management Llc (10% Owner) Buy 50 752.07 37,603
2019-05-30 Horizon Kinetics Asset Management Llc (10% Owner) Buy 50 799.00 39,950
2019-05-29 Horizon Kinetics Asset Management Llc (10% Owner) Buy 50 813.21 40,660
2019-05-28 Horizon Kinetics Asset Management Llc (10% Owner) Buy 50 790.32 39,516
2019-05-24 Horizon Kinetics Asset Management Llc (10% Owner) Buy 50 790.09 39,504
2019-05-23 Horizon Kinetics Asset Management Llc (10% Owner) Buy 36 792.09 28,515
2019-05-22 Horizon Kinetics Asset Management Llc (10% Owner) Buy 36 831.23 29,924
2019-05-21 Horizon Kinetics Asset Management Llc (10% Owner) Buy 36 849.48 30,581
2019-05-20 Horizon Kinetics Asset Management Llc (10% Owner) Buy 36 860.09 30,963
2019-05-17 Horizon Kinetics Asset Management Llc (10% Owner) Buy 36 845.42 30,435
2019-05-16 Horizon Kinetics Asset Management Llc (10% Owner) Buy 36 842.57 30,332
2019-05-15 Horizon Kinetics Asset Management Llc (10% Owner) Buy 36 837.84 30,162
2019-05-14 Horizon Kinetics Asset Management Llc (10% Owner) Buy 36 805.73 29,006
2019-05-13 Horizon Kinetics Asset Management Llc (10% Owner) Buy 36 787.20 28,339
2019-05-10 Horizon Kinetics Asset Management Llc (10% Owner) Buy 36 780.78 28,108
2019-05-09 Horizon Kinetics Asset Management Llc (10% Owner) Buy 36 779.99 28,079
2019-05-08 Horizon Kinetics Asset Management Llc (10% Owner) Buy 36 799.98 28,799
2019-05-07 Horizon Kinetics Asset Management Llc (10% Owner) Buy 36 781.21 28,123
2019-05-06 Horizon Kinetics Asset Management Llc (10% Owner) Buy 36 807.23 29,060
2019-05-03 Kinetics Asset Management Llc (10% Owner) Buy 36 807.20 29,059
2019-05-02 Kinetics Asset Management Llc (10% Owner) Buy 36 819.99 29,519
2019-05-01 Kinetics Asset Management Llc (10% Owner) Buy 36 806.68 29,040
2019-04-30 Kinetics Asset Management Llc (10% Owner) Buy 36 809.65 29,147
2019-04-29 Kinetics Asset Management Llc (10% Owner) Buy 36 837.93 30,165
2019-04-26 Kinetics Asset Management Llc (10% Owner) Buy 36 879.00 31,644
2019-04-25 Kinetics Asset Management Llc (10% Owner) Buy 36 897.25 32,301
2019-04-24 Kinetics Asset Management Llc (10% Owner) Buy 36 899.87 32,395
2019-04-23 Kinetics Asset Management Llc (10% Owner) Buy 36 898.87 32,359
2019-04-22 Kinetics Asset Management Llc (10% Owner) Buy 36 896.07 32,258
2019-04-18 Kinetics Asset Management Llc (10% Owner) Buy 42 899.92 37,796
2019-04-17 Kinetics Asset Management Llc (10% Owner) Buy 42 887.23 37,263
2019-04-16 Kinetics Asset Management Llc (10% Owner) Buy 42 898.49 37,736
2019-04-15 Kinetics Asset Management Llc (10% Owner) Buy 42 903.05 37,928
2019-04-12 Kinetics Asset Management Llc (10% Owner) Buy 42 903.52 37,947
2019-04-11 Kinetics Asset Management Llc (10% Owner) Buy 42 911.07 38,264
2019-04-10 Kinetics Asset Management Llc (10% Owner) Buy 42 874.06 36,710
2019-04-09 Kinetics Asset Management Llc (10% Owner) Buy 36 821.55 29,575
2019-04-08 Kinetics Asset Management Llc (10% Owner) Buy 7 814.50 5,701
2019-04-05 Kinetics Asset Management Llc (10% Owner) Buy 42 792.27 33,275
2019-04-04 Kinetics Asset Management Llc (10% Owner) Buy 1,516 784.57 1,189,408
2019-04-03 Kinetics Asset Management Llc (10% Owner) Buy 42 797.88 33,510
2019-04-02 Kinetics Asset Management Llc (10% Owner) Buy 42 801.16 33,648
2019-04-01 Kinetics Asset Management Llc (10% Owner) Buy 42 784.30 32,940
2019-03-29 Kinetics Asset Management Llc (10% Owner) Buy 42 773.48 32,486
2019-03-28 Kinetics Asset Management Llc (10% Owner) Buy 7 774.83 5,423
2019-03-27 Kinetics Asset Management Llc (10% Owner) Buy 42 774.38 32,523
2019-03-26 Kinetics Asset Management Llc (10% Owner) Buy 42 764.28 32,099
2019-03-25 Kinetics Asset Management Llc (10% Owner) Buy 42 725.36 30,465
2019-03-22 Kinetics Asset Management Llc (10% Owner) Buy 42 751.10 31,546
2019-03-21 Kinetics Asset Management Llc (10% Owner) Buy 42 767.89 32,251
2019-03-20 Kinetics Asset Management Llc (10% Owner) Buy 42 765.98 32,171
2019-03-19 Kinetics Asset Management Llc (10% Owner) Buy 42 760.69 31,948
2019-03-18 Kinetics Asset Management Llc (10% Owner) Buy 42 741.16 31,128
2019-03-15 Kinetics Asset Management Llc (10% Owner) Buy 42 748.14 31,421
2018-12-26 Barry David E. (Other) Buy 100 467.06 46,706
2018-12-04 Glover Tyler (Co-General Agent) Buy 100 598.00 59,800
2018-12-04 Packer Robert J (Chief Financial Officer) Buy 100 589.00 58,900
2018-11-19 Meyer Maurice Iii (Other) Sale 500 607.26 303,630
2018-11-15 Meyer Maurice Iii (Other) Sale 500 570.00 285,000
2018-11-14 Meyer Maurice Iii (Other) Sale 500 576.19 288,095
2018-10-11 Barry David E. (Director) Buy 100 810.00 81,000
2018-10-03 Meyer Maurice Iii (Other) Sale 109 874.00 95,266
2018-09-26 Meyer Maurice Iii (Other) Sale 1,000 860.00 860,000
2018-09-12 Meyer Maurice Iii (Other) Sale 500 835.00 417,500
2018-08-27 Meyer Maurice Iii (Other) Sale 1,000 854.13 854,132
2017-03-03 Barry David E. (Other) Buy 100 292.00 29,200
2017-03-03 Packer Robert J (Chief Financial Officer) Buy 100 293.76 29,376
2015-02-03 Norwood James K (Other) Buy 200 122.72 24,545
2014-12-12 Peterson David M (General Agent) Buy 17 111.33 1,892
2014-11-05 Peterson David M (General Agent and CFO) Buy 33 145.95 4,816
2011-12-20 Norwood James K (Other) Buy 100 41.75 4,175
2008-10-08 Norwood James K (Other) Buy 300 26.30 7,890
2008-10-06 Thomas Roy (General Agent and CEO) Buy 500 33.75 16,875
2005-10-25 Meyer Maurice Iii (Other) Buy 100 119.20 11,920

Insider trading activities including stock purchases, stock sales, and option exercises of TPL listed in the above tables cannot be completely guaranteed as to their accuracy. For more insider trading information of Texas Pacific Land Trust (symbol TPL, CIK number 97517) see the Securities and Exchange Commission (SEC) website.




Real-time Insider Trading

Insider Officer Cluster Trading

Top Officer Buys of the Week

Top Officer Buys of the Month